sensor_id;sensor_type;location;lat;lon;timestamp;pressure;altitude;pressure_sealevel;temperature;humidity
23341;BME280;12239;53.404;23.492;2023-04-05T12:48:40;78397.91;;;-147.78;51.94
23341;BME280;12239;53.404;23.492;2023-04-05T12:51:15;78407.35;;;-147.78;53.56
23341;BME280;12239;53.404;23.492;2023-04-05T12:53:45;78403.23;;;-147.78;55.08
23341;BME280;12239;53.404;23.492;2023-04-05T12:56:13;78405.29;;;-147.78;53.75
23341;BME280;12239;53.404;23.492;2023-04-05T12:58:41;78424.98;;;-147.78;52.98
23341;BME280;12239;53.404;23.492;2023-04-05T13:01:09;78449.60;;;-147.78;52.63
23341;BME280;12239;53.404;23.492;2023-04-05T13:03:36;78462.31;;;-147.78;53.46
23341;BME280;12239;53.404;23.492;2023-04-05T13:06:04;78473.39;;;-147.78;54.02
23341;BME280;12239;53.404;23.492;2023-04-05T13:08:51;78468.46;;;-147.78;54.74
23341;BME280;12239;53.404;23.492;2023-04-05T13:11:18;78469.29;;;-147.78;54.62
23341;BME280;12239;53.404;23.492;2023-04-05T13:13:46;78470.52;;;-147.78;54.17
23341;BME280;12239;53.404;23.492;2023-04-05T13:16:13;78467.23;;;-147.78;53.85
23341;BME280;12239;53.404;23.492;2023-04-05T13:18:44;78469.28;;;-147.78;54.20
23341;BME280;12239;53.404;23.492;2023-04-05T13:21:11;78470.92;;;-147.78;54.04
23341;BME280;12239;53.404;23.492;2023-04-05T13:23:38;78470.52;;;-147.78;54.74
23341;BME280;12239;53.404;23.492;2023-04-05T13:26:07;78473.39;;;-147.78;53.35
23341;BME280;12239;53.404;23.492;2023-04-05T13:28:34;78474.61;;;-147.78;54.15
23341;BME280;12239;53.404;23.492;2023-04-05T13:31:02;78470.52;;;-147.78;54.24
23341;BME280;12239;53.404;23.492;2023-04-05T13:33:32;78465.17;;;-147.78;53.40
23341;BME280;12239;53.404;23.492;2023-04-05T13:35:59;78463.95;;;-147.78;52.97
23341;BME280;12239;53.404;23.492;2023-04-05T13:38:26;78463.95;;;-147.78;51.75
23341;BME280;12239;53.404;23.492;2023-04-05T13:40:54;78468.88;;;-147.78;51.90
23341;BME280;12239;53.404;23.492;2023-04-05T13:43:21;78474.20;;;-147.78;52.07
23341;BME280;12239;53.404;23.492;2023-04-05T13:45:49;78470.92;;;-147.78;51.78
23341;BME280;12239;53.404;23.492;2023-04-05T13:48:16;78473.39;;;-147.78;50.85
23341;BME280;12239;53.404;23.492;2023-04-05T13:50:43;78470.52;;;-147.78;51.41
23341;BME280;12239;53.404;23.492;2023-04-05T13:53:11;78467.64;;;-147.78;51.35
23341;BME280;12239;53.404;23.492;2023-04-05T13:55:38;78459.84;;;-147.78;50.34
23341;BME280;12239;53.404;23.492;2023-04-05T13:58:06;78456.58;;;-147.78;51.01
23341;BME280;12239;53.404;23.492;2023-04-05T14:00:33;78454.52;;;-147.78;50.10
23341;BME280;12239;53.404;23.492;2023-04-05T14:05:56;78454.11;;;-147.78;51.14
23341;BME280;12239;53.404;23.492;2023-04-05T14:08:26;78468.46;;;-147.78;53.38
23341;BME280;12239;53.404;23.492;2023-04-05T14:10:55;78475.84;;;-147.78;54.36
23341;BME280;12239;53.404;23.492;2023-04-05T14:13:24;78487.74;;;-147.78;54.55
23341;BME280;12239;53.404;23.492;2023-04-05T14:15:53;78490.20;;;-147.78;55.27
23341;BME280;12239;53.404;23.492;2023-04-05T14:18:23;78490.61;;;-147.78;55.54
23341;BME280;12239;53.404;23.492;2023-04-05T14:20:52;78498.82;;;-147.78;54.90
23341;BME280;12239;53.404;23.492;2023-04-05T14:23:23;78506.61;;;-147.78;55.39
23341;BME280;12239;53.404;23.492;2023-04-05T14:25:54;78512.77;;;-147.78;54.49
23341;BME280;12239;53.404;23.492;2023-04-05T14:28:23;78516.05;;;-147.78;54.17
23341;BME280;12239;53.404;23.492;2023-04-05T14:30:52;78520.55;;;-147.78;54.21
23341;BME280;12239;53.404;23.492;2023-04-05T14:33:22;78527.13;;;-147.78;54.56
23341;BME280;12239;53.404;23.492;2023-04-05T14:35:51;78532.05;;;-147.78;54.71
23341;BME280;12239;53.404;23.492;2023-04-05T14:38:20;78534.51;;;-147.78;54.19
23341;BME280;12239;53.404;23.492;2023-04-05T14:40:50;78535.33;;;-147.78;54.59
23341;BME280;12239;53.404;23.492;2023-04-05T14:43:19;78540.25;;;-147.78;54.44
23341;BME280;12239;53.404;23.492;2023-04-05T14:45:48;78546.81;;;-147.78;53.51
23341;BME280;12239;53.404;23.492;2023-04-05T14:48:18;78553.79;;;-147.78;53.77
23341;BME280;12239;53.404;23.492;2023-04-05T14:50:48;78559.12;;;-147.78;52.80
23341;BME280;12239;53.404;23.492;2023-04-05T14:53:17;78567.32;;;-147.78;53.02
23341;BME280;12239;53.404;23.492;2023-04-05T14:55:47;78574.70;;;-147.78;53.14
23341;BME280;12239;53.404;23.492;2023-04-05T14:58:16;78580.45;;;-147.78;53.55
23341;BME280;12239;53.404;23.492;2023-04-05T15:00:46;78568.96;;;-147.78;53.56
23341;BME280;12239;53.404;23.492;2023-04-05T15:03:16;78548.86;;;-147.78;54.25
23341;BME280;12239;53.404;23.492;2023-04-05T15:05:46;78519.33;;;-147.78;53.41
23341;BME280;12239;53.404;23.492;2023-04-05T15:08:19;78484.88;;;-147.78;53.14
23341;BME280;12239;53.404;23.492;2023-04-05T15:10:49;78428.67;;;-147.78;51.84
23341;BME280;12239;53.404;23.492;2023-04-05T15:13:38;78301.52;;;-147.78;51.08
23341;BME280;12239;53.404;23.492;2023-04-05T15:16:10;78213.33;;;-147.78;49.12
23341;BME280;12239;53.404;23.492;2023-04-05T15:19:00;78151.80;;;-147.78;47.95
23341;BME280;12239;53.404;23.492;2023-04-05T15:21:50;78098.89;;;-147.78;47.16
23341;BME280;12239;53.404;23.492;2023-04-05T15:24:22;78076.34;;;-147.78;46.20
23341;BME280;12239;53.404;23.492;2023-04-05T15:27:12;78060.74;;;-147.78;45.84
23341;BME280;12239;53.404;23.492;2023-04-05T15:30:02;78057.88;;;-147.78;45.12
23341;BME280;12239;53.404;23.492;2023-04-05T15:32:52;78059.11;;;-147.78;45.72
23341;BME280;12239;53.404;23.492;2023-04-05T15:35:25;78043.52;;;-147.78;44.30
23341;BME280;12239;53.404;23.492;2023-04-05T15:38:14;78128.02;;;-147.78;44.54
23341;BME280;12239;53.404;23.492;2023-04-05T15:41:04;78199.79;;;-147.78;45.85
23341;BME280;12239;53.404;23.492;2023-04-05T15:43:56;78274.85;;;-147.78;46.46
23341;BME280;12239;53.404;23.492;2023-04-05T15:46:43;78331.45;;;-147.78;47.50
23341;BME280;12239;53.404;23.492;2023-04-05T15:49:12;78372.48;;;-147.78;47.93
23341;BME280;12239;53.404;23.492;2023-04-05T15:51:42;78409.39;;;-147.78;48.70
23341;BME280;12239;53.404;23.492;2023-04-05T15:54:31;78442.20;;;-147.78;49.06
23341;BME280;12239;53.404;23.492;2023-04-05T15:57:01;78467.64;;;-147.78;50.60
23341;BME280;12239;53.404;23.492;2023-04-05T15:59:30;78490.20;;;-147.78;51.87
23341;BME280;12239;53.404;23.492;2023-04-05T16:02:00;78508.66;;;-147.78;52.69
23341;BME280;12239;53.404;23.492;2023-04-05T16:04:30;78520.97;;;-147.78;53.22
23341;BME280;12239;53.404;23.492;2023-04-05T16:07:02;78531.23;;;-147.78;53.47
23341;BME280;12239;53.404;23.492;2023-04-05T16:09:52;78541.89;;;-147.78;53.72
23341;BME280;12239;53.404;23.492;2023-04-05T16:12:24;78547.63;;;-147.78;54.20
23341;BME280;12239;53.404;23.492;2023-04-05T16:15:14;78555.84;;;-147.78;53.70
23341;BME280;12239;53.404;23.492;2023-04-05T16:17:44;78564.04;;;-147.78;53.87
23341;BME280;12239;53.404;23.492;2023-04-05T16:20:14;78566.91;;;-147.78;54.12
23341;BME280;12239;53.404;23.492;2023-04-05T16:22:46;78573.88;;;-147.78;53.93
23341;BME280;12239;53.404;23.492;2023-04-05T16:25:16;78580.45;;;-147.78;54.47
23341;BME280;12239;53.404;23.492;2023-04-05T16:27:48;78589.06;;;-147.78;54.73
23341;BME280;12239;53.404;23.492;2023-04-05T16:30:18;78601.78;;;-147.78;54.36
23341;BME280;12239;53.404;23.492;2023-04-05T16:32:49;78606.70;;;-147.78;54.37
23341;BME280;12239;53.404;23.492;2023-04-05T16:35:39;78615.73;;;-147.78;54.64
23341;BME280;12239;53.404;23.492;2023-04-05T16:38:09;78621.47;;;-147.78;54.17
23341;BME280;12239;53.404;23.492;2023-04-05T16:40:38;78627.63;;;-147.78;54.42
23341;BME280;12239;53.404;23.492;2023-04-05T16:43:08;78626.80;;;-147.78;54.63
23341;BME280;12239;53.404;23.492;2023-04-05T16:45:37;78632.54;;;-147.78;54.65
23341;BME280;12239;53.404;23.492;2023-04-05T16:48:07;78637.05;;;-147.78;54.61
23341;BME280;12239;53.404;23.492;2023-04-05T16:50:36;78642.80;;;-147.78;55.10
23341;BME280;12239;53.404;23.492;2023-04-05T16:53:06;78646.90;;;-147.78;54.07
23341;BME280;12239;53.404;23.492;2023-04-05T16:55:35;78652.64;;;-147.78;54.15
23341;BME280;12239;53.404;23.492;2023-04-05T16:58:04;78663.31;;;-147.78;54.06
23341;BME280;12239;53.404;23.492;2023-04-05T17:00:33;78674.80;;;-147.78;54.02
23341;BME280;12239;53.404;23.492;2023-04-05T17:03:04;78678.49;;;-147.78;53.82
23341;BME280;12239;53.404;23.492;2023-04-05T17:05:33;78682.59;;;-147.78;53.87
23341;BME280;12239;53.404;23.492;2023-04-05T17:08:03;78689.56;;;-147.78;54.49
23341;BME280;12239;53.404;23.492;2023-04-05T17:10:32;78696.13;;;-147.78;54.08
23341;BME280;12239;53.404;23.492;2023-04-05T17:13:03;78703.10;;;-147.78;54.45
23341;BME280;12239;53.404;23.492;2023-04-05T17:15:32;78710.08;;;-147.78;54.82
23341;BME280;12239;53.404;23.492;2023-04-05T17:18:02;78715.83;;;-147.78;54.62
23341;BME280;12239;53.404;23.492;2023-04-05T17:20:32;78720.73;;;-147.78;55.03
23341;BME280;12239;53.404;23.492;2023-04-05T17:23:02;78726.90;;;-147.78;55.20
23341;BME280;12239;53.404;23.492;2023-04-05T17:25:31;78729.35;;;-147.78;55.40
23341;BME280;12239;53.404;23.492;2023-04-05T17:28:00;78735.92;;;-147.78;55.41
23341;BME280;12239;53.404;23.492;2023-04-05T17:30:31;78745.36;;;-147.78;55.53
23341;BME280;12239;53.404;23.492;2023-04-05T17:33:00;78748.23;;;-147.78;55.98
23341;BME280;12239;53.404;23.492;2023-04-05T17:35:33;78754.79;;;-147.78;56.35
23341;BME280;12239;53.404;23.492;2023-04-05T17:38:02;78760.13;;;-147.78;56.93
23341;BME280;12239;53.404;23.492;2023-04-05T17:40:32;78765.45;;;-147.78;57.57
23341;BME280;12239;53.404;23.492;2023-04-05T17:43:01;78773.25;;;-147.78;58.45
23341;BME280;12239;53.404;23.492;2023-04-05T17:45:30;78781.86;;;-147.78;58.60
23341;BME280;12239;53.404;23.492;2023-04-05T17:47:59;78788.44;;;-147.78;59.10
23341;BME280;12239;53.404;23.492;2023-04-05T17:50:29;78793.76;;;-147.78;59.56
23341;BME280;12239;53.404;23.492;2023-04-05T17:52:58;78798.69;;;-147.78;60.06
23341;BME280;12239;53.404;23.492;2023-04-05T17:55:27;78798.69;;;-147.78;60.60
23341;BME280;12239;53.404;23.492;2023-04-05T17:57:56;78802.38;;;-147.78;60.96
23341;BME280;12239;53.404;23.492;2023-04-05T18:00:26;78807.30;;;-147.78;61.37
23341;BME280;12239;53.404;23.492;2023-04-05T18:02:55;78810.59;;;-147.78;61.49
23341;BME280;12239;53.404;23.492;2023-04-05T18:05:24;78809.77;;;-147.78;61.97
23341;BME280;12239;53.404;23.492;2023-04-05T18:07:54;78811.81;;;-147.78;62.41
23341;BME280;12239;53.404;23.492;2023-04-05T18:10:23;78814.68;;;-147.78;62.64
23341;BME280;12239;53.404;23.492;2023-04-05T18:12:53;78818.38;;;-147.78;63.15
23341;BME280;12239;53.404;23.492;2023-04-05T18:15:22;78821.25;;;-147.78;63.46
23341;BME280;12239;53.404;23.492;2023-04-05T18:17:51;78822.06;;;-147.78;63.69
23341;BME280;12239;53.404;23.492;2023-04-05T18:20:21;78822.89;;;-147.78;64.19
23341;BME280;12239;53.404;23.492;2023-04-05T18:22:50;78823.71;;;-147.78;64.21
23341;BME280;12239;53.404;23.492;2023-04-05T18:28:22;78828.63;;;-147.78;64.96
23341;BME280;12239;53.404;23.492;2023-04-05T18:30:52;78823.71;;;-147.78;65.08
23341;BME280;12239;53.404;23.492;2023-04-05T18:33:21;78826.17;;;-147.78;65.19
23341;BME280;12239;53.404;23.492;2023-04-05T18:35:50;78824.12;;;-147.78;63.03
23341;BME280;12239;53.404;23.492;2023-04-05T18:38:20;78822.89;;;-147.78;63.03
23341;BME280;12239;53.404;23.492;2023-04-05T18:40:49;78822.89;;;-147.78;63.13
23341;BME280;12239;53.404;23.492;2023-04-05T18:43:26;78821.25;;;-147.78;62.99
23341;BME280;12239;53.404;23.492;2023-04-05T18:45:55;78822.48;;;-147.78;62.87
23341;BME280;12239;53.404;23.492;2023-04-05T18:48:25;78822.89;;;-147.78;62.64
23341;BME280;12239;53.404;23.492;2023-04-05T18:50:54;78822.07;;;-147.78;62.74
23341;BME280;12239;53.404;23.492;2023-04-05T18:53:24;78825.77;;;-147.78;62.99
23341;BME280;12239;53.404;23.492;2023-04-05T18:55:53;78824.12;;;-147.78;62.90
23341;BME280;12239;53.404;23.492;2023-04-05T18:58:23;78826.17;;;-147.78;62.71
23341;BME280;12239;53.404;23.492;2023-04-05T19:00:52;78831.91;;;-147.78;62.91
23341;BME280;12239;53.404;23.492;2023-04-05T19:03:22;78836.02;;;-147.78;63.15
23341;BME280;12239;53.404;23.492;2023-04-05T19:05:51;78840.13;;;-147.78;63.26
23341;BME280;12239;53.404;23.492;2023-04-05T19:08:21;78849.55;;;-147.78;63.58
23341;BME280;12239;53.404;23.492;2023-04-05T19:10:50;78856.12;;;-147.78;63.89
23341;BME280;12239;53.404;23.492;2023-04-05T19:13:19;78864.32;;;-147.78;64.41
23341;BME280;12239;53.404;23.492;2023-04-05T19:15:49;78870.48;;;-147.78;64.64
23341;BME280;12239;53.404;23.492;2023-04-05T19:18:18;78876.63;;;-147.78;65.19
23341;BME280;12239;53.404;23.492;2023-04-05T19:20:53;78883.19;;;-147.78;65.39
23341;BME280;12239;53.404;23.492;2023-04-05T19:23:23;78888.11;;;-147.78;65.86
23341;BME280;12239;53.404;23.492;2023-04-05T19:25:52;78897.55;;;-147.78;66.37
23341;BME280;12239;53.404;23.492;2023-04-05T19:28:43;78902.89;;;-147.78;66.85
23341;BME280;12239;53.404;23.492;2023-04-05T19:31:12;78907.40;;;-147.78;67.31
23341;BME280;12239;53.404;23.492;2023-04-05T19:33:42;78915.19;;;-147.78;67.70
23341;BME280;12239;53.404;23.492;2023-04-05T19:36:11;78918.06;;;-147.78;67.85
23341;BME280;12239;53.404;23.492;2023-04-05T19:38:40;78922.58;;;-147.78;67.97
23341;BME280;12239;53.404;23.492;2023-04-05T19:41:10;78926.27;;;-147.78;68.31
23341;BME280;12239;53.404;23.492;2023-04-05T19:43:39;78929.14;;;-147.78;68.45
23341;BME280;12239;53.404;23.492;2023-04-05T19:46:09;78932.02;;;-147.78;68.73
23341;BME280;12239;53.404;23.492;2023-04-05T19:48:39;78933.65;;;-147.78;68.74
23341;BME280;12239;53.404;23.492;2023-04-05T19:51:08;78937.76;;;-147.78;69.14
23341;BME280;12239;53.404;23.492;2023-04-05T19:53:41;78945.55;;;-147.78;69.35
23341;BME280;12239;53.404;23.492;2023-04-05T19:56:13;78952.12;;;-147.78;69.44
23341;BME280;12239;53.404;23.492;2023-04-05T19:58:43;78958.27;;;-147.78;70.03
23341;BME280;12239;53.404;23.492;2023-04-05T20:01:21;78959.91;;;-147.78;70.14
23341;BME280;12239;53.404;23.492;2023-04-05T20:03:56;78963.19;;;-147.78;70.66
23341;BME280;12239;53.404;23.492;2023-04-05T20:06:26;78965.23;;;-147.78;71.13
23341;BME280;12239;53.404;23.492;2023-04-05T20:09:00;78966.48;;;-147.78;71.68
23341;BME280;12239;53.404;23.492;2023-04-05T20:11:30;78967.70;;;-147.78;71.89
23341;BME280;12239;53.404;23.492;2023-04-05T20:14:00;78968.52;;;-147.78;71.83
23341;BME280;12239;53.404;23.492;2023-04-05T20:16:31;78968.94;;;-147.78;72.14
23341;BME280;12239;53.404;23.492;2023-04-05T20:19:01;78967.29;;;-147.78;72.35
23341;BME280;12239;53.404;23.492;2023-04-05T20:21:31;78964.83;;;-147.78;72.67
23341;BME280;12239;53.404;23.492;2023-04-05T20:24:01;78964.01;;;-147.78;72.24
23341;BME280;12239;53.404;23.492;2023-04-05T20:26:30;78967.29;;;-147.78;72.24
23341;BME280;12239;53.404;23.492;2023-04-05T20:29:01;78966.88;;;-147.78;72.67
23341;BME280;12239;53.404;23.492;2023-04-05T20:31:31;78968.52;;;-147.78;72.59
23341;BME280;12239;53.404;23.492;2023-04-05T20:34:05;78967.30;;;-147.78;72.70
23341;BME280;12239;53.404;23.492;2023-04-05T20:36:37;78964.42;;;-147.78;72.88
23341;BME280;12239;53.404;23.492;2023-04-05T20:39:09;78966.89;;;-147.78;73.07
23341;BME280;12239;53.404;23.492;2023-04-05T20:41:39;78968.11;;;-147.78;72.77
23341;BME280;12239;53.404;23.492;2023-04-05T20:44:08;78969.34;;;-147.78;73.49
23341;BME280;12239;53.404;23.492;2023-04-05T20:46:38;78973.04;;;-147.78;73.66
23341;BME280;12239;53.404;23.492;2023-04-05T20:49:07;78977.55;;;-147.78;73.73
23341;BME280;12239;53.404;23.492;2023-04-05T20:51:37;78980.42;;;-147.78;74.35
23341;BME280;12239;53.404;23.492;2023-04-05T20:54:06;78983.70;;;-147.78;75.60
23341;BME280;12239;53.404;23.492;2023-04-05T20:56:35;78989.45;;;-147.78;75.93
23341;BME280;12239;53.404;23.492;2023-04-05T20:59:05;78988.63;;;-147.78;76.20
23341;BME280;12239;53.404;23.492;2023-04-05T21:01:54;78992.32;;;-147.78;76.99
23341;BME280;12239;53.404;23.492;2023-04-05T21:04:23;78996.02;;;-147.78;77.74
23341;BME280;12239;53.404;23.492;2023-04-05T21:06:53;79003.80;;;-147.78;78.44
23341;BME280;12239;53.404;23.492;2023-04-05T21:09:23;79005.04;;;-147.78;78.97
23341;BME280;12239;53.404;23.492;2023-04-05T21:11:52;79003.40;;;-147.78;78.77
23341;BME280;12239;53.404;23.492;2023-04-05T21:14:22;79000.11;;;-147.78;79.70
23341;BME280;12239;53.404;23.492;2023-04-05T21:16:51;78997.65;;;-147.78;79.72
23341;BME280;12239;53.404;23.492;2023-04-05T21:19:24;79000.52;;;-147.78;80.19
23341;BME280;12239;53.404;23.492;2023-04-05T21:21:53;78995.60;;;-147.78;79.98
23341;BME280;12239;53.404;23.492;2023-04-05T21:24:22;78990.27;;;-147.78;79.72
23341;BME280;12239;53.404;23.492;2023-04-05T21:26:52;78985.75;;;-147.78;80.12
23341;BME280;12239;53.404;23.492;2023-04-05T21:29:21;78984.11;;;-147.78;80.15
23341;BME280;12239;53.404;23.492;2023-04-05T21:31:50;78978.78;;;-147.78;80.37
23341;BME280;12239;53.404;23.492;2023-04-05T21:34:20;78978.37;;;-147.78;80.22
23341;BME280;12239;53.404;23.492;2023-04-05T21:36:49;78974.67;;;-147.78;80.10
23341;BME280;12239;53.404;23.492;2023-04-05T21:39:21;78971.40;;;-147.78;80.10
23341;BME280;12239;53.404;23.492;2023-04-05T21:41:50;78968.11;;;-147.78;80.36
23341;BME280;12239;53.404;23.492;2023-04-05T21:44:20;78970.58;;;-147.78;80.09
23341;BME280;12239;53.404;23.492;2023-04-05T21:46:49;78969.35;;;-147.78;80.33
23341;BME280;12239;53.404;23.492;2023-04-05T21:49:18;78971.80;;;-147.78;80.57
23341;BME280;12239;53.404;23.492;2023-04-05T21:51:48;78970.58;;;-147.78;80.89
23341;BME280;12239;53.404;23.492;2023-04-05T21:54:17;78969.75;;;-147.78;80.76
23341;BME280;12239;53.404;23.492;2023-04-05T21:56:46;78964.83;;;-147.78;80.78
23341;BME280;12239;53.404;23.492;2023-04-05T21:59:16;78962.78;;;-147.78;80.74
23341;BME280;12239;53.404;23.492;2023-04-05T22:01:45;78958.27;;;-147.78;80.72
23341;BME280;12239;53.404;23.492;2023-04-05T22:04:15;78956.21;;;-147.78;80.83
23341;BME280;12239;53.404;23.492;2023-04-05T22:06:45;78954.16;;;-147.78;81.39
23341;BME280;12239;53.404;23.492;2023-04-05T22:09:14;78950.06;;;-147.78;81.60
23341;BME280;12239;53.404;23.492;2023-04-05T22:11:43;78945.96;;;-147.78;81.42
23341;BME280;12239;53.404;23.492;2023-04-05T22:14:13;78941.86;;;-147.78;81.22
23341;BME280;12239;53.404;23.492;2023-04-05T22:17:03;78938.16;;;-147.78;81.14
23341;BME280;12239;53.404;23.492;2023-04-05T22:19:32;78932.42;;;-147.78;81.11
23341;BME280;12239;53.404;23.492;2023-04-05T22:22:01;78927.50;;;-147.78;80.86
23341;BME280;12239;53.404;23.492;2023-04-05T22:24:31;78921.34;;;-147.78;80.68
23341;BME280;12239;53.404;23.492;2023-04-05T22:27:03;78913.55;;;-147.78;80.30
23341;BME280;12239;53.404;23.492;2023-04-05T22:29:32;78906.58;;;-147.78;80.03
23341;BME280;12239;53.404;23.492;2023-04-05T22:32:01;78904.11;;;-147.78;79.84
23341;BME280;12239;53.404;23.492;2023-04-05T22:34:31;78900.84;;;-147.78;79.61
23341;BME280;12239;53.404;23.492;2023-04-05T22:37:00;78898.77;;;-147.78;79.34
23341;BME280;12239;53.404;23.492;2023-04-05T22:39:29;78900.42;;;-147.78;78.91
23341;BME280;12239;53.404;23.492;2023-04-05T22:41:59;78900.42;;;-147.78;78.96
23341;BME280;12239;53.404;23.492;2023-04-05T22:44:28;78900.02;;;-147.78;78.72
23341;BME280;12239;53.404;23.492;2023-04-05T22:46:58;78896.73;;;-147.78;78.50
23341;BME280;12239;53.404;23.492;2023-04-05T22:49:27;78896.73;;;-147.78;78.36
23341;BME280;12239;53.404;23.492;2023-04-05T22:51:56;78891.80;;;-147.78;78.33
23341;BME280;12239;53.404;23.492;2023-04-05T22:54:27;78890.16;;;-147.78;77.75
23341;BME280;12239;53.404;23.492;2023-04-05T22:56:56;78890.58;;;-147.78;77.43
23341;BME280;12239;53.404;23.492;2023-04-05T22:59:26;78881.96;;;-147.78;77.16
23341;BME280;12239;53.404;23.492;2023-04-05T23:01:55;78874.58;;;-147.78;76.82
23341;BME280;12239;53.404;23.492;2023-04-05T23:04:24;78870.06;;;-147.78;76.65
23341;BME280;12239;53.404;23.492;2023-04-05T23:06:54;78861.86;;;-147.78;76.42
23341;BME280;12239;53.404;23.492;2023-04-05T23:09:24;78857.35;;;-147.78;76.15
23341;BME280;12239;53.404;23.492;2023-04-05T23:11:54;78853.65;;;-147.78;75.96
23341;BME280;12239;53.404;23.492;2023-04-05T23:14:23;78849.55;;;-147.78;75.67
23341;BME280;12239;53.404;23.492;2023-04-05T23:16:52;78849.14;;;-147.78;75.72
23341;BME280;12239;53.404;23.492;2023-04-05T23:19:22;78847.91;;;-147.78;75.66
23341;BME280;12239;53.404;23.492;2023-04-05T23:21:52;78850.78;;;-147.78;75.77
23341;BME280;12239;53.404;23.492;2023-04-05T23:24:22;78851.20;;;-147.78;75.82
23341;BME280;12239;53.404;23.492;2023-04-05T23:26:51;78852.84;;;-147.78;76.16
23341;BME280;12239;53.404;23.492;2023-04-05T23:29:21;78854.06;;;-147.78;76.11
23341;BME280;12239;53.404;23.492;2023-04-05T23:31:50;78854.07;;;-147.78;76.07
23341;BME280;12239;53.404;23.492;2023-04-05T23:34:20;78847.09;;;-147.78;75.94
23341;BME280;12239;53.404;23.492;2023-04-05T23:36:49;78846.68;;;-147.78;75.83
23341;BME280;12239;53.404;23.492;2023-04-05T23:39:19;78843.40;;;-147.78;75.80
23341;BME280;12239;53.404;23.492;2023-04-05T23:41:51;78837.66;;;-147.78;75.50
23341;BME280;12239;53.404;23.492;2023-04-05T23:44:20;78832.73;;;-147.78;75.56
23341;BME280;12239;53.404;23.492;2023-04-05T23:46:50;78827.40;;;-147.78;75.49
23341;BME280;12239;53.404;23.492;2023-04-05T23:49:19;78821.66;;;-147.78;75.62
23341;BME280;12239;53.404;23.492;2023-04-05T23:51:49;78824.94;;;-147.78;75.74
23341;BME280;12239;53.404;23.492;2023-04-05T23:54:19;78822.89;;;-147.78;75.70
23341;BME280;12239;53.404;23.492;2023-04-05T23:56:48;78824.52;;;-147.78;75.65
23341;BME280;12239;53.404;23.492;2023-04-05T23:59:18;78823.71;;;-147.78;76.01
